sensor_id;sensor_type;location;lat;lon;timestamp;temperature;humidity
19033;DHT22;9649;51.042;13.804;2023-03-14T00:03:00;11.00;99.90
19033;DHT22;9649;51.042;13.804;2023-03-14T00:08:03;11.00;99.90
19033;DHT22;9649;51.042;13.804;2023-03-14T00:13:05;11.00;99.90
19033;DHT22;9649;51.042;13.804;2023-03-14T00:18:09;11.00;99.90
19033;DHT22;9649;51.042;13.804;2023-03-14T00:23:12;11.00;99.90
19033;DHT22;9649;51.042;13.804;2023-03-14T00:28:15;11.00;99.90
19033;DHT22;9649;51.042;13.804;2023-03-14T00:33:19;11.00;99.90
19033;DHT22;9649;51.042;13.804;2023-03-14T00:38:22;11.00;99.90
19033;DHT22;9649;51.042;13.804;2023-03-14T00:43:25;11.00;99.90
19033;DHT22;9649;51.042;13.804;2023-03-14T00:48:29;10.90;99.90
19033;DHT22;9649;51.042;13.804;2023-03-14T00:53:35;11.00;99.90
19033;DHT22;9649;51.042;13.804;2023-03-14T00:58:38;11.10;99.90
19033;DHT22;9649;51.042;13.804;2023-03-14T01:03:42;11.10;99.90
19033;DHT22;9649;51.042;13.804;2023-03-14T01:08:46;11.10;99.90
19033;DHT22;9649;51.042;13.804;2023-03-14T01:13:49;11.10;99.90
19033;DHT22;9649;51.042;13.804;2023-03-14T01:18:54;11.10;99.90
19033;DHT22;9649;51.042;13.804;2023-03-14T01:23:58;11.10;99.90
19033;DHT22;9649;51.042;13.804;2023-03-14T01:29:02;11.10;99.90
19033;DHT22;9649;51.042;13.804;2023-03-14T01:34:06;11.10;99.90
19033;DHT22;9649;51.042;13.804;2023-03-14T01:39:09;11.20;99.90
19033;DHT22;9649;51.042;13.804;2023-03-14T01:44:12;11.20;99.90
19033;DHT22;9649;51.042;13.804;2023-03-14T01:49:22;11.10;99.90
19033;DHT22;9649;51.042;13.804;2023-03-14T01:54:30;11.10;99.90
19033;DHT22;9649;51.042;13.804;2023-03-14T01:59:34;11.10;99.90
19033;DHT22;9649;51.042;13.804;2023-03-14T02:04:39;11.10;99.90
19033;DHT22;9649;51.042;13.804;2023-03-14T02:09:43;11.00;99.90
19033;DHT22;9649;51.042;13.804;2023-03-14T02:14:46;11.00;99.90
19033;DHT22;9649;51.042;13.804;2023-03-14T02:20:03;11.00;99.90
19033;DHT22;9649;51.042;13.804;2023-03-14T02:25:10;11.10;99.90
19033;DHT22;9649;51.042;13.804;2023-03-14T02:30:17;11.10;99.90
19033;DHT22;9649;51.042;13.804;2023-03-14T02:35:23;11.10;99.90
19033;DHT22;9649;51.042;13.804;2023-03-14T02:40:26;10.90;99.90
19033;DHT22;9649;51.042;13.804;2023-03-14T02:45:37;10.80;99.90
19033;DHT22;9649;51.042;13.804;2023-03-14T02:50:41;10.70;99.90
19033;DHT22;9649;51.042;13.804;2023-03-14T02:55:45;10.70;99.90
19033;DHT22;9649;51.042;13.804;2023-03-14T03:00:50;10.80;99.90
19033;DHT22;9649;51.042;13.804;2023-03-14T03:05:54;10.90;99.90
19033;DHT22;9649;51.042;13.804;2023-03-14T03:10:58;11.10;99.90
19033;DHT22;9649;51.042;13.804;2023-03-14T03:16:02;11.10;99.90
19033;DHT22;9649;51.042;13.804;2023-03-14T03:21:06;11.00;99.90
19033;DHT22;9649;51.042;13.804;2023-03-14T03:26:10;10.70;99.90
19033;DHT22;9649;51.042;13.804;2023-03-14T03:31:14;10.40;99.90
19033;DHT22;9649;51.042;13.804;2023-03-14T03:36:21;10.30;99.90
19033;DHT22;9649;51.042;13.804;2023-03-14T03:41:24;10.30;99.90
19033;DHT22;9649;51.042;13.804;2023-03-14T03:46:28;10.20;99.90
19033;DHT22;9649;51.042;13.804;2023-03-14T03:51:31;10.40;99.90
19033;DHT22;9649;51.042;13.804;2023-03-14T03:56:34;10.30;99.90
19033;DHT22;9649;51.042;13.804;2023-03-14T04:01:38;10.20;99.90
19033;DHT22;9649;51.042;13.804;2023-03-14T04:06:41;10.00;99.90
19033;DHT22;9649;51.042;13.804;2023-03-14T04:11:44;9.90;99.90
19033;DHT22;9649;51.042;13.804;2023-03-14T04:16:48;10.00;99.90
19033;DHT22;9649;51.042;13.804;2023-03-14T04:21:51;10.10;99.90
19033;DHT22;9649;51.042;13.804;2023-03-14T04:26:53;10.30;99.90
19033;DHT22;9649;51.042;13.804;2023-03-14T04:31:57;10.40;1.00
19033;DHT22;9649;51.042;13.804;2023-03-14T04:37:00;10.40;99.90
19033;DHT22;9649;51.042;13.804;2023-03-14T04:42:03;10.70;1.00
19033;DHT22;9649;51.042;13.804;2023-03-14T04:47:09;10.90;1.00
19033;DHT22;9649;51.042;13.804;2023-03-14T04:52:12;10.80;1.00
19033;DHT22;9649;51.042;13.804;2023-03-14T04:57:14;10.80;1.00
19033;DHT22;9649;51.042;13.804;2023-03-14T05:02:18;11.10;99.90
19033;DHT22;9649;51.042;13.804;2023-03-14T05:07:21;11.30;99.90
19033;DHT22;9649;51.042;13.804;2023-03-14T05:12:24;11.40;1.00
19033;DHT22;9649;51.042;13.804;2023-03-14T05:17:28;11.40;1.00
19033;DHT22;9649;51.042;13.804;2023-03-14T05:22:30;11.40;1.00
19033;DHT22;9649;51.042;13.804;2023-03-14T05:27:33;11.40;1.00
19033;DHT22;9649;51.042;13.804;2023-03-14T05:32:38;11.40;1.00
19033;DHT22;9649;51.042;13.804;2023-03-14T05:37:40;11.40;1.00
19033;DHT22;9649;51.042;13.804;2023-03-14T05:42:43;11.40;99.90
19033;DHT22;9649;51.042;13.804;2023-03-14T05:47:48;11.40;99.90
19033;DHT22;9649;51.042;13.804;2023-03-14T05:52:51;11.40;29.30
19033;DHT22;9649;51.042;13.804;2023-03-14T05:57:54;11.40;99.90
19033;DHT22;9649;51.042;13.804;2023-03-14T06:02:58;11.20;99.90
19033;DHT22;9649;51.042;13.804;2023-03-14T06:08:00;11.20;99.90
19033;DHT22;9649;51.042;13.804;2023-03-14T06:13:03;11.20;99.90
19033;DHT22;9649;51.042;13.804;2023-03-14T06:18:07;11.40;1.00
19033;DHT22;9649;51.042;13.804;2023-03-14T06:23:10;11.50;1.00
19033;DHT22;9649;51.042;13.804;2023-03-14T06:28:13;11.70;1.00
19033;DHT22;9649;51.042;13.804;2023-03-14T06:33:17;11.60;1.00
19033;DHT22;9649;51.042;13.804;2023-03-14T06:38:20;11.60;1.00
19033;DHT22;9649;51.042;13.804;2023-03-14T06:43:23;11.60;1.00
19033;DHT22;9649;51.042;13.804;2023-03-14T06:48:27;11.70;1.00
19033;DHT22;9649;51.042;13.804;2023-03-14T06:53:29;12.00;99.90
19033;DHT22;9649;51.042;13.804;2023-03-14T06:58:32;12.30;99.90
19033;DHT22;9649;51.042;13.804;2023-03-14T07:03:36;12.40;99.90
19033;DHT22;9649;51.042;13.804;2023-03-14T07:08:39;12.40;99.90
19033;DHT22;9649;51.042;13.804;2023-03-14T07:13:43;12.40;99.90
19033;DHT22;9649;51.042;13.804;2023-03-14T07:18:47;12.60;99.90
19033;DHT22;9649;51.042;13.804;2023-03-14T07:23:50;12.60;99.90
19033;DHT22;9649;51.042;13.804;2023-03-14T07:28:53;12.60;1.00
19033;DHT22;9649;51.042;13.804;2023-03-14T07:34:04;12.60;48.00
19033;DHT22;9649;51.042;13.804;2023-03-14T07:39:09;12.60;99.90
19033;DHT22;9649;51.042;13.804;2023-03-14T07:44:12;12.60;99.90
19033;DHT22;9649;51.042;13.804;2023-03-14T07:49:20;12.60;99.90
19033;DHT22;9649;51.042;13.804;2023-03-14T07:54:25;12.70;99.90
19033;DHT22;9649;51.042;13.804;2023-03-14T07:59:56;12.60;99.90
19033;DHT22;9649;51.042;13.804;2023-03-14T08:05:40;12.90;62.60
19033;DHT22;9649;51.042;13.804;2023-03-14T08:10:46;13.00;1.00
19033;DHT22;9649;51.042;13.804;2023-03-14T08:15:58;12.80;1.00
19033;DHT22;9649;51.042;13.804;2023-03-14T08:21:17;12.80;1.00
19033;DHT22;9649;51.042;13.804;2023-03-14T08:26:33;12.80;1.00
19033;DHT22;9649;51.042;13.804;2023-03-14T08:31:50;12.80;1.00
19033;DHT22;9649;51.042;13.804;2023-03-14T08:37:14;13.10;1.00
19033;DHT22;9649;51.042;13.804;2023-03-14T08:42:28;13.70;99.90
19033;DHT22;9649;51.042;13.804;2023-03-14T08:48:04;14.10;99.90
19033;DHT22;9649;51.042;13.804;2023-03-14T08:53:16;14.40;1.00
19033;DHT22;9649;51.042;13.804;2023-03-14T08:58:59;14.30;1.00
19033;DHT22;9649;51.042;13.804;2023-03-14T09:04:36;14.60;1.00
19033;DHT22;9649;51.042;13.804;2023-03-14T09:09:49;14.60;1.00
19033;DHT22;9649;51.042;13.804;2023-03-14T09:15:14;14.30;1.00
19033;DHT22;9649;51.042;13.804;2023-03-14T09:21:05;14.20;1.00
19033;DHT22;9649;51.042;13.804;2023-03-14T09:32:57;15.10;1.00
19033;DHT22;9649;51.042;13.804;2023-03-14T09:38:46;14.80;1.00
19033;DHT22;9649;51.042;13.804;2023-03-14T09:44:21;14.60;1.00
19033;DHT22;9649;51.042;13.804;2023-03-14T09:56:29;14.10;1.00
19033;DHT22;9649;51.042;13.804;2023-03-14T10:10:13;13.70;14.50
19033;DHT22;9649;51.042;13.804;2023-03-14T10:16:03;13.80;1.00
19033;DHT22;9649;51.042;13.804;2023-03-14T10:21:30;13.90;1.00
19033;DHT22;9649;51.042;13.804;2023-03-14T10:26:58;13.90;1.00
19033;DHT22;9649;51.042;13.804;2023-03-14T10:32:05;13.90;1.00
19033;DHT22;9649;51.042;13.804;2023-03-14T10:37:17;13.80;1.00
19033;DHT22;9649;51.042;13.804;2023-03-14T10:42:25;14.00;1.00
19033;DHT22;9649;51.042;13.804;2023-03-14T10:47:33;14.30;1.00
19033;DHT22;9649;51.042;13.804;2023-03-14T10:52:47;14.40;1.00
19033;DHT22;9649;51.042;13.804;2023-03-14T10:58:28;14.40;1.00
19033;DHT22;9649;51.042;13.804;2023-03-14T11:03:41;14.30;1.00
19033;DHT22;9649;51.042;13.804;2023-03-14T11:08:49;14.30;1.00
19033;DHT22;9649;51.042;13.804;2023-03-14T11:14:06;14.20;1.00
19033;DHT22;9649;51.042;13.804;2023-03-14T11:20:13;14.30;1.00
19033;DHT22;9649;51.042;13.804;2023-03-14T11:26:01;14.40;1.00
19033;DHT22;9649;51.042;13.804;2023-03-14T11:31:48;14.60;1.00
19033;DHT22;9649;51.042;13.804;2023-03-14T11:37:14;14.70;1.00
19033;DHT22;9649;51.042;13.804;2023-03-14T11:42:38;14.80;1.00
19033;DHT22;9649;51.042;13.804;2023-03-14T11:48:22;17.60;1.00
19033;DHT22;9649;51.042;13.804;2023-03-14T11:53:43;17.70;1.00
19033;DHT22;9649;51.042;13.804;2023-03-14T11:59:19;16.70;1.00
19033;DHT22;9649;51.042;13.804;2023-03-14T12:12:21;15.00;1.00
19033;DHT22;9649;51.042;13.804;2023-03-14T12:18:01;14.90;1.00
19033;DHT22;9649;51.042;13.804;2023-03-14T12:23:26;15.40;1.00
19033;DHT22;9649;51.042;13.804;2023-03-14T13:00:40;17.30;1.00
19033;DHT22;9649;51.042;13.804;2023-03-14T13:06:04;19.50;1.00
19033;DHT22;9649;51.042;13.804;2023-03-14T13:11:29;19.90;1.00
19033;DHT22;9649;51.042;13.804;2023-03-14T13:18:37;22.80;99.90
19033;DHT22;9649;51.042;13.804;2023-03-14T13:23:28;27.00;99.90
19033;DHT22;9649;51.042;13.804;2023-03-14T13:29:26;27.70;99.90
19033;DHT22;9649;51.042;13.804;2023-03-14T13:35:20;26.40;99.90
19033;DHT22;9649;51.042;13.804;2023-03-14T13:40:29;25.10;99.90
19033;DHT22;9649;51.042;13.804;2023-03-14T13:45:43;27.50;99.90
19033;DHT22;9649;51.042;13.804;2023-03-14T13:50:51;25.90;99.90
19033;DHT22;9649;51.042;13.804;2023-03-14T13:55:56;25.20;99.90
19033;DHT22;9649;51.042;13.804;2023-03-14T14:01:10;24.50;99.90
19033;DHT22;9649;51.042;13.804;2023-03-14T14:06:28;22.50;99.90
19033;DHT22;9649;51.042;13.804;2023-03-14T14:11:41;24.70;99.90
19033;DHT22;9649;51.042;13.804;2023-03-14T14:16:54;21.40;99.90
19033;DHT22;9649;51.042;13.804;2023-03-14T14:21:58;19.80;99.90
19033;DHT22;9649;51.042;13.804;2023-03-14T14:27:09;18.80;99.90
19033;DHT22;9649;51.042;13.804;2023-03-14T14:32:15;18.40;99.90
19033;DHT22;9649;51.042;13.804;2023-03-14T14:37:22;23.10;99.90
19033;DHT22;9649;51.042;13.804;2023-03-14T14:42:31;24.10;99.90
19033;DHT22;9649;51.042;13.804;2023-03-14T14:47:34;23.40;99.90
19033;DHT22;9649;51.042;13.804;2023-03-14T14:52:41;23.40;99.90
19033;DHT22;9649;51.042;13.804;2023-03-14T14:57:51;24.30;99.90
19033;DHT22;9649;51.042;13.804;2023-03-14T15:02:55;21.50;99.90
19033;DHT22;9649;51.042;13.804;2023-03-14T15:08:01;18.70;99.90
19033;DHT22;9649;51.042;13.804;2023-03-14T15:13:05;20.20;99.90
19033;DHT22;9649;51.042;13.804;2023-03-14T15:18:13;20.80;99.90
19033;DHT22;9649;51.042;13.804;2023-03-14T15:23:18;21.40;99.90
19033;DHT22;9649;51.042;13.804;2023-03-14T15:28:24;20.30;99.90
19033;DHT22;9649;51.042;13.804;2023-03-14T15:33:27;19.30;99.90
19033;DHT22;9649;51.042;13.804;2023-03-14T15:38:30;18.50;99.90
19033;DHT22;9649;51.042;13.804;2023-03-14T15:43:34;17.70;1.00
19033;DHT22;9649;51.042;13.804;2023-03-14T15:48:37;16.80;1.00
19033;DHT22;9649;51.042;13.804;2023-03-14T15:53:40;16.30;1.00
19033;DHT22;9649;51.042;13.804;2023-03-14T15:58:46;16.10;1.00
19033;DHT22;9649;51.042;13.804;2023-03-14T16:03:48;15.90;1.00
19033;DHT22;9649;51.042;13.804;2023-03-14T16:08:54;15.70;1.00
19033;DHT22;9649;51.042;13.804;2023-03-14T16:13:58;15.50;1.00
19033;DHT22;9649;51.042;13.804;2023-03-14T16:19:01;15.20;1.00
19033;DHT22;9649;51.042;13.804;2023-03-14T16:24:06;15.10;1.00
19033;DHT22;9649;51.042;13.804;2023-03-14T16:29:10;15.00;1.00
19033;DHT22;9649;51.042;13.804;2023-03-14T16:34:13;14.80;1.00
19033;DHT22;9649;51.042;13.804;2023-03-14T16:39:15;14.00;1.00
19033;DHT22;9649;51.042;13.804;2023-03-14T16:44:19;12.80;99.90
19033;DHT22;9649;51.042;13.804;2023-03-14T16:49:22;12.00;1.00
19033;DHT22;9649;51.042;13.804;2023-03-14T16:54:25;11.50;99.90
19033;DHT22;9649;51.042;13.804;2023-03-14T16:59:29;9.80;99.90
19033;DHT22;9649;51.042;13.804;2023-03-14T17:04:31;8.50;99.90
19033;DHT22;9649;51.042;13.804;2023-03-14T17:09:34;8.10;99.90
19033;DHT22;9649;51.042;13.804;2023-03-14T17:14:39;8.00;99.90
19033;DHT22;9649;51.042;13.804;2023-03-14T17:19:42;7.80;99.90
19033;DHT22;9649;51.042;13.804;2023-03-14T17:24:45;7.60;99.90
19033;DHT22;9649;51.042;13.804;2023-03-14T17:29:49;7.50;99.90
19033;DHT22;9649;51.042;13.804;2023-03-14T17:34:52;7.20;99.90
19033;DHT22;9649;51.042;13.804;2023-03-14T17:39:55;7.10;99.90
19033;DHT22;9649;51.042;13.804;2023-03-14T17:45:07;6.80;99.90
19033;DHT22;9649;51.042;13.804;2023-03-14T17:50:11;5.90;99.90
19033;DHT22;9649;51.042;13.804;2023-03-14T17:55:14;5.50;99.90
19033;DHT22;9649;51.042;13.804;2023-03-14T18:00:20;5.30;99.90
19033;DHT22;9649;51.042;13.804;2023-03-14T18:05:25;5.00;99.90
19033;DHT22;9649;51.042;13.804;2023-03-14T18:10:28;4.80;99.90
19033;DHT22;9649;51.042;13.804;2023-03-14T18:15:32;4.80;99.90
19033;DHT22;9649;51.042;13.804;2023-03-14T18:20:34;4.80;99.90
19033;DHT22;9649;51.042;13.804;2023-03-14T18:25:37;4.80;99.90
19033;DHT22;9649;51.042;13.804;2023-03-14T18:30:41;4.70;99.90
19033;DHT22;9649;51.042;13.804;2023-03-14T18:35:44;4.50;99.90
19033;DHT22;9649;51.042;13.804;2023-03-14T18:40:47;4.70;99.90
19033;DHT22;9649;51.042;13.804;2023-03-14T18:45:53;4.90;99.90
19033;DHT22;9649;51.042;13.804;2023-03-14T18:50:56;4.70;99.90
19033;DHT22;9649;51.042;13.804;2023-03-14T18:56:00;4.50;99.90
19033;DHT22;9649;51.042;13.804;2023-03-14T19:01:07;4.60;99.90
19033;DHT22;9649;51.042;13.804;2023-03-14T19:58:10;4.90;43.00
19033;DHT22;9649;51.042;13.804;2023-03-14T20:04:31;5.00;1.00
19033;DHT22;9649;51.042;13.804;2023-03-14T20:10:27;5.00;1.00
19033;DHT22;9649;51.042;13.804;2023-03-14T20:22:59;4.70;1.00
19033;DHT22;9649;51.042;13.804;2023-03-14T22:02:06;3.80;15.90
19033;DHT22;9649;51.042;13.804;2023-03-14T22:08:04;3.70;1.00
19033;DHT22;9649;51.042;13.804;2023-03-14T22:13:30;3.70;1.00
19033;DHT22;9649;51.042;13.804;2023-03-14T22:19:54;3.60;99.90
19033;DHT22;9649;51.042;13.804;2023-03-14T22:25:52;3.50;99.90
19033;DHT22;9649;51.042;13.804;2023-03-14T22:31:21;3.40;1.00
19033;DHT22;9649;51.042;13.804;2023-03-14T22:37:06;3.40;92.10
19033;DHT22;9649;51.042;13.804;2023-03-14T22:42:29;3.50;1.00
19033;DHT22;9649;51.042;13.804;2023-03-14T22:48:06;3.40;1.00
19033;DHT22;9649;51.042;13.804;2023-03-14T22:54:06;3.30;99.90
19033;DHT22;9649;51.042;13.804;2023-03-14T22:59:23;3.40;1.00
19033;DHT22;9649;51.042;13.804;2023-03-14T23:05:14;3.50;1.00
19033;DHT22;9649;51.042;13.804;2023-03-14T23:10:59;3.10;1.00
19033;DHT22;9649;51.042;13.804;2023-03-14T23:16:28;2.90;1.00
19033;DHT22;9649;51.042;13.804;2023-03-14T23:22:12;2.70;1.00
19033;DHT22;9649;51.042;13.804;2023-03-14T23:28:07;2.80;99.90
19033;DHT22;9649;51.042;13.804;2023-03-14T23:33:22;2.50;1.00
19033;DHT22;9649;51.042;13.804;2023-03-14T23:38:57;2.10;99.90
19033;DHT22;9649;51.042;13.804;2023-03-14T23:44:43;2.20;99.90
19033;DHT22;9649;51.042;13.804;2023-03-14T23:50:38;2.60;99.90
19033;DHT22;9649;51.042;13.804;2023-03-14T23:56:16;2.50;1.00
